createdAt,value
2023-02-17T00:01:25.141Z,46.45
2023-02-17T00:03:52.808Z,47.83
2023-02-17T00:06:21.425Z,49.63
2023-02-17T00:08:49.262Z,44.85
2023-02-17T00:11:16.978Z,51.83
2023-02-17T00:13:44.462Z,44.75
2023-02-17T00:16:13.454Z,60.83
2023-02-17T00:18:40.725Z,53.45
2023-02-17T00:21:14.178Z,60.10
2023-02-17T00:23:41.610Z,64.32
2023-02-17T00:26:09.078Z,58.78
2023-02-17T00:28:36.656Z,55.40
2023-02-17T00:31:08.046Z,63.38
2023-02-17T00:33:35.375Z,64.43
2023-02-17T00:36:07.188Z,64.30
2023-02-17T00:38:34.660Z,70.80
2023-02-17T00:41:01.918Z,68.22
2023-02-17T00:43:31.468Z,54.53
2023-02-17T00:45:58.799Z,73.65
2023-02-17T00:48:26.044Z,68.43
2023-02-17T00:50:53.232Z,61.40
2023-02-17T00:53:21.104Z,62.78
2023-02-17T00:55:48.510Z,62.63
2023-02-17T00:58:16.167Z,59.47
2023-02-17T01:00:43.481Z,72.47
2023-02-17T01:03:10.774Z,64.57
2023-02-17T01:05:42.061Z,60.40
2023-02-17T01:08:09.488Z,63.65
2023-02-17T01:10:37.929Z,64.40
2023-02-17T01:13:05.612Z,69.77
2023-02-17T01:15:33.428Z,60.20
2023-02-17T01:18:00.702Z,62.00
2023-02-17T01:20:28.070Z,59.78
2023-02-17T01:22:55.302Z,62.78
2023-02-17T01:25:23.861Z,61.08
2023-02-17T01:27:51.336Z,64.72
2023-02-17T01:30:18.700Z,62.47
2023-02-17T01:32:46.505Z,50.78
2023-02-17T01:35:13.805Z,55.95
2023-02-17T01:37:41.057Z,53.17
2023-02-17T01:40:08.581Z,54.20
2023-02-17T01:42:35.812Z,48.08
2023-02-17T01:45:29.494Z,52.40
2023-02-17T01:48:22.934Z,54.97
2023-02-17T01:50:59.494Z,57.70
2023-02-17T01:53:50.519Z,49.95
2023-02-17T01:56:18.120Z,46.88
2023-02-17T01:58:51.763Z,51.45
2023-02-17T02:01:20.417Z,50.53
2023-02-17T02:03:48.223Z,55.22
2023-02-17T02:06:19.569Z,49.75
2023-02-17T02:08:51.996Z,47.90
2023-02-17T02:11:19.318Z,45.30
2023-02-17T02:16:21.695Z,37.20
2023-02-17T02:19:09.471Z,51.47
2023-02-17T02:21:51.223Z,49.33
2023-02-17T02:24:44.328Z,50.25
2023-02-17T02:27:27.601Z,50.63
2023-02-17T02:29:57.825Z,42.92
2023-02-17T02:32:25.052Z,48.42
2023-02-17T02:35:11.192Z,49.00
2023-02-17T02:37:50.747Z,49.28
2023-02-17T02:40:20.385Z,51.70
2023-02-17T02:42:47.658Z,39.88
2023-02-17T02:45:14.915Z,41.35
2023-02-17T02:47:45.372Z,39.47
2023-02-17T02:50:17.655Z,46.38
2023-02-17T02:52:51.057Z,40.22
2023-02-17T02:55:38.632Z,44.70
2023-02-17T02:58:15.007Z,43.53
2023-02-17T03:00:42.401Z,45.67
2023-02-17T03:03:13.442Z,46.60
2023-02-17T03:05:56.694Z,38.40
2023-02-17T03:08:29.921Z,39.58
2023-02-17T03:10:58.145Z,38.95
2023-02-17T03:13:25.594Z,40.78
2023-02-17T03:15:53.068Z,46.03
2023-02-17T03:18:20.358Z,46.10
2023-02-17T03:20:58.138Z,45.20
2023-02-17T03:23:26.068Z,52.10
2023-02-17T03:25:53.614Z,39.80
2023-02-17T03:28:20.880Z,48.30
2023-02-17T03:30:48.704Z,44.42
2023-02-17T03:33:15.947Z,46.83
2023-02-17T03:35:43.194Z,43.88
2023-02-17T03:38:10.451Z,42.63
2023-02-17T03:40:37.976Z,39.95
2023-02-17T03:43:05.244Z,36.45
2023-02-17T03:45:32.900Z,39.55
2023-02-17T03:48:00.287Z,45.90
2023-02-17T03:50:27.548Z,45.38
2023-02-17T03:52:54.808Z,43.35
2023-02-17T03:55:22.099Z,44.47
2023-02-17T03:57:49.333Z,41.90
2023-02-17T04:00:16.803Z,45.20
2023-02-17T04:02:44.372Z,41.40
2023-02-17T04:05:11.725Z,43.65
2023-02-17T04:07:39.180Z,44.78
2023-02-17T04:10:09.299Z,57.38
2023-02-17T04:12:36.797Z,55.17
2023-02-17T04:15:04.236Z,46.88
2023-02-17T04:17:31.509Z,45.33
2023-02-17T04:19:58.886Z,55.15
2023-02-17T04:22:26.134Z,53.75
2023-02-17T04:24:53.415Z,60.72
2023-02-17T04:27:20.637Z,55.28
2023-02-17T04:29:47.918Z,49.25
2023-02-17T04:32:15.246Z,57.67
2023-02-17T04:34:42.471Z,52.40
2023-02-17T04:37:09.728Z,57.00
2023-02-17T04:39:36.915Z,63.95
2023-02-17T04:42:04.268Z,59.83
2023-02-17T04:44:31.586Z,53.58
2023-02-17T04:46:58.805Z,54.75
2023-02-17T04:49:26.027Z,50.15
2023-02-17T04:51:53.308Z,53.28
2023-02-17T04:54:22.739Z,47.60
2023-02-17T04:56:50.018Z,60.60
2023-02-17T04:59:17.266Z,55.00
2023-02-17T05:01:44.461Z,58.97
2023-02-17T05:04:11.661Z,56.05
2023-02-17T05:06:38.907Z,63.17
2023-02-17T05:09:06.148Z,68.45
2023-02-17T05:11:33.470Z,69.60
2023-02-17T05:14:00.919Z,54.03
2023-02-17T05:16:28.156Z,66.03
2023-02-17T05:18:55.432Z,62.10
2023-02-17T05:21:22.687Z,58.38
2023-02-17T05:23:49.893Z,45.05
2023-02-17T05:26:17.128Z,58.10
2023-02-17T05:28:44.313Z,56.00
2023-02-17T05:31:12.509Z,51.95
2023-02-17T05:33:39.886Z,54.28
2023-02-17T05:36:08.257Z,58.13
2023-02-17T05:38:36.176Z,52.20
2023-02-17T05:41:03.458Z,61.63
2023-02-17T05:43:30.659Z,58.88
2023-02-17T05:46:01.801Z,53.28
2023-02-17T05:48:29.019Z,52.47
2023-02-17T05:50:56.202Z,56.55
2023-02-17T05:53:23.437Z,57.08
2023-02-17T05:55:50.691Z,59.67
2023-02-17T05:58:18.017Z,68.30
2023-02-17T06:00:46.043Z,56.53
2023-02-17T06:03:13.544Z,58.20
2023-02-17T06:05:40.954Z,45.33
2023-02-17T06:08:08.159Z,55.50
2023-02-17T06:10:35.419Z,56.28
2023-02-17T06:13:03.636Z,60.72
2023-02-17T06:15:30.998Z,60.67
2023-02-17T06:17:58.285Z,61.47
2023-02-17T06:20:25.610Z,59.35
2023-02-17T06:22:52.888Z,56.08
2023-02-17T06:25:20.128Z,62.08
2023-02-17T06:27:47.364Z,65.05
2023-02-17T06:30:15.060Z,55.92
2023-02-17T06:32:42.338Z,60.55
2023-02-17T06:35:09.836Z,55.85
2023-02-17T06:37:37.302Z,52.80
2023-02-17T06:40:04.842Z,45.55
2023-02-17T06:42:32.230Z,51.53
2023-02-17T06:45:00.819Z,56.13
2023-02-17T06:47:28.037Z,56.63
2023-02-17T06:49:55.305Z,48.60
2023-02-17T06:52:22.509Z,44.15
2023-02-17T06:54:49.888Z,43.05
2023-02-17T06:57:17.761Z,49.85
2023-02-17T06:59:45.044Z,46.30
2023-02-17T07:02:13.041Z,50.35
2023-02-17T07:04:40.793Z,43.58
2023-02-17T07:07:08.462Z,46.25
2023-02-17T07:09:35.963Z,51.78
2023-02-17T07:12:03.482Z,45.05
2023-02-17T07:14:30.839Z,43.15
2023-02-17T07:16:58.064Z,48.42
2023-02-17T07:19:25.473Z,44.95
2023-02-17T07:21:52.795Z,48.33
2023-02-17T07:24:20.191Z,45.75
2023-02-17T07:26:47.462Z,43.30
2023-02-17T07:29:14.778Z,43.65
2023-02-17T07:31:42.062Z,46.90
2023-02-17T07:34:09.359Z,48.85
2023-02-17T07:36:36.650Z,46.15
2023-02-17T07:39:04.300Z,41.40
2023-02-17T07:41:33.587Z,44.75
2023-02-17T07:44:10.111Z,49.53
2023-02-17T07:46:39.565Z,46.88
2023-02-17T07:49:07.105Z,37.95
2023-02-17T07:51:35.178Z,38.92
2023-02-17T07:54:02.842Z,42.70
2023-02-17T07:56:30.194Z,46.08
2023-02-17T07:58:57.626Z,41.35
2023-02-17T08:01:25.849Z,37.90
2023-02-17T08:03:53.311Z,35.97
2023-02-17T08:06:22.018Z,47.42
2023-02-17T08:09:08.571Z,40.97
2023-02-17T08:11:54.629Z,36.22
2023-02-17T08:14:22.630Z,38.08
2023-02-17T08:16:49.997Z,42.75
2023-02-17T08:19:17.301Z,38.92
2023-02-17T08:21:44.718Z,28.98
2023-02-17T08:24:12.380Z,43.03
2023-02-17T08:26:40.023Z,41.63
2023-02-17T08:29:07.254Z,31.98
2023-02-17T08:31:36.354Z,35.80
2023-02-17T08:34:05.605Z,32.35
2023-02-17T08:36:33.214Z,33.55
2023-02-17T08:39:04.207Z,37.20
2023-02-17T08:41:32.575Z,35.72
2023-02-17T08:44:01.539Z,30.30
2023-02-17T08:46:30.153Z,27.60
2023-02-17T08:48:57.893Z,33.78
2023-02-17T08:51:26.184Z,33.00
2023-02-17T08:53:54.504Z,31.63
2023-02-17T08:56:25.550Z,29.23
2023-02-17T08:58:52.912Z,31.30
2023-02-17T09:01:20.812Z,35.20
2023-02-17T09:03:49.763Z,34.35
2023-02-17T09:06:17.766Z,32.47
2023-02-17T09:08:45.578Z,33.00
2023-02-17T09:11:15.467Z,30.00
2023-02-17T09:13:42.962Z,36.63
2023-02-17T09:16:11.046Z,35.45
2023-02-17T09:18:38.506Z,36.25
2023-02-17T09:21:07.169Z,36.85
2023-02-17T09:23:34.724Z,33.10
2023-02-17T09:26:06.910Z,36.58
2023-02-17T09:28:34.715Z,28.17
2023-02-17T09:31:22.412Z,30.67
2023-02-17T09:33:50.313Z,30.13
2023-02-17T09:36:19.445Z,28.25
2023-02-17T09:38:46.818Z,34.03
2023-02-17T09:41:23.383Z,34.47
2023-02-17T09:43:51.286Z,30.33
2023-02-17T09:46:18.576Z,30.88
2023-02-17T09:48:47.402Z,25.08
2023-02-17T09:51:22.610Z,27.20
2023-02-17T09:53:55.017Z,26.02
2023-02-17T09:56:31.517Z,27.88
2023-02-17T09:59:01.384Z,26.48
2023-02-17T10:01:32.792Z,24.88
2023-02-17T10:04:09.919Z,26.02
2023-02-17T10:07:03.779Z,30.77
2023-02-17T10:09:37.046Z,30.00
2023-02-17T10:12:14.040Z,25.23
2023-02-17T10:14:44.174Z,22.38
2023-02-17T10:17:16.084Z,27.77
2023-02-17T10:19:49.543Z,24.85
2023-02-17T10:22:19.027Z,23.75
2023-02-17T10:24:46.261Z,22.55
2023-02-17T10:27:23.026Z,27.55
2023-02-17T10:29:56.915Z,23.15
2023-02-17T10:32:25.610Z,30.38
2023-02-17T10:35:08.512Z,25.70
2023-02-17T10:37:49.795Z,22.13
2023-02-17T10:40:17.129Z,24.75
2023-02-17T10:42:44.402Z,24.30
2023-02-17T10:45:15.384Z,21.25
2023-02-17T10:47:42.829Z,22.50
2023-02-17T10:50:21.079Z,19.35
2023-02-17T10:52:49.005Z,26.10
2023-02-17T10:55:23.160Z,25.63
2023-02-17T10:57:54.798Z,17.88
2023-02-17T11:00:22.725Z,23.25
2023-02-17T11:02:52.250Z,30.27
2023-02-17T11:05:27.388Z,22.15
2023-02-17T11:08:00.463Z,22.55
2023-02-17T11:10:29.828Z,26.33
2023-02-17T11:15:36.384Z,21.02
2023-02-17T11:18:11.066Z,25.55
2023-02-17T11:20:38.975Z,24.10
2023-02-17T11:23:15.926Z,18.05
2023-02-17T11:25:43.889Z,26.63
2023-02-17T11:28:15.154Z,17.88
2023-02-17T11:30:50.409Z,22.90
2023-02-17T11:33:22.633Z,24.52
2023-02-17T11:35:51.754Z,18.88
2023-02-17T11:38:20.585Z,19.92
2023-02-17T11:40:55.436Z,25.42
2023-02-17T11:43:23.763Z,22.20
2023-02-17T11:46:00.970Z,23.05
2023-02-17T11:48:47.324Z,17.05
2023-02-17T11:51:23.845Z,21.58
2023-02-17T11:54:03.009Z,20.55
2023-02-17T11:58:57.410Z,18.75
2023-02-17T12:01:43.940Z,15.25
2023-02-17T12:04:28.661Z,16.58
2023-02-17T12:07:15.182Z,15.27
2023-02-17T12:09:49.728Z,17.10
2023-02-17T12:12:37.554Z,18.00
2023-02-17T12:15:19.951Z,21.67
2023-02-17T12:17:50.438Z,12.55
2023-02-17T12:20:17.917Z,14.68
2023-02-17T12:23:01.626Z,14.27
2023-02-17T12:25:31.995Z,11.35
2023-02-17T12:28:05.372Z,9.15
2023-02-17T12:30:32.686Z,12.00
2023-02-17T12:33:09.105Z,14.73
2023-02-17T12:35:43.678Z,14.57
2023-02-17T12:38:16.712Z,15.77
2023-02-17T12:40:47.943Z,11.13
2023-02-17T12:43:18.240Z,14.48
2023-02-17T12:45:47.209Z,17.33
2023-02-17T12:48:23.356Z,19.65
2023-02-17T12:50:59.696Z,14.82
2023-02-17T12:53:45.234Z,13.60
2023-02-17T12:56:21.289Z,14.15
2023-02-17T12:58:49.145Z,11.88
2023-02-17T13:01:19.855Z,15.82
2023-02-17T13:03:47.329Z,13.98
2023-02-17T13:06:37.348Z,13.55
2023-02-17T13:09:04.713Z,11.68
2023-02-17T13:11:34.129Z,13.88
2023-02-17T13:14:12.224Z,15.57
2023-02-17T13:16:44.103Z,13.52
2023-02-17T13:19:11.365Z,12.65
2023-02-17T13:21:49.152Z,13.63
2023-02-17T13:24:31.161Z,9.70
2023-02-17T13:26:58.481Z,14.27
2023-02-17T13:29:25.730Z,11.02
2023-02-17T13:31:57.505Z,16.52
2023-02-17T13:34:30.136Z,12.80
2023-02-17T13:36:57.576Z,18.48
2023-02-17T13:39:27.741Z,14.55
2023-02-17T13:41:59.406Z,18.45
2023-02-17T13:44:35.672Z,11.68
2023-02-17T13:47:18.035Z,13.73
2023-02-17T13:49:52.147Z,13.13
2023-02-17T13:52:22.474Z,12.43
2023-02-17T13:55:15.771Z,12.70
2023-02-17T13:57:44.069Z,14.35
2023-02-17T14:00:14.110Z,13.52
2023-02-17T14:02:49.530Z,14.23
2023-02-17T14:05:18.961Z,13.43
2023-02-17T14:07:50.145Z,11.70
2023-02-17T14:10:25.023Z,15.23
2023-02-17T14:12:53.057Z,11.05
2023-02-17T14:15:22.208Z,12.02
2023-02-17T14:17:49.738Z,17.50
2023-02-17T14:20:28.897Z,12.80
2023-02-17T14:25:32.897Z,11.10
2023-02-17T14:28:00.198Z,13.20
2023-02-17T14:30:30.737Z,11.95
2023-02-17T14:33:16.704Z,18.75
2023-02-17T14:36:00.721Z,16.52
2023-02-17T14:38:29.288Z,9.60
2023-02-17T14:40:56.912Z,14.95
2023-02-17T14:43:24.396Z,15.25
2023-02-17T14:45:52.128Z,14.20
2023-02-17T14:48:19.799Z,14.07
2023-02-17T14:50:47.602Z,15.05
2023-02-17T14:53:19.827Z,14.55
2023-02-17T14:55:51.157Z,14.00
2023-02-17T14:58:20.029Z,17.95
2023-02-17T15:00:47.700Z,11.52
2023-02-17T15:03:15.054Z,10.38
2023-02-17T15:05:42.988Z,14.55
2023-02-17T15:08:15.670Z,13.27
2023-02-17T15:10:43.197Z,14.65
2023-02-17T15:13:21.295Z,13.85
2023-02-17T15:15:49.860Z,12.30
2023-02-17T15:18:18.598Z,19.52
2023-02-17T15:20:54.991Z,16.05
2023-02-17T15:23:25.542Z,14.30
2023-02-17T15:25:54.806Z,14.35
2023-02-17T15:30:54.499Z,15.77
2023-02-17T15:33:22.754Z,10.27
2023-02-17T15:35:53.515Z,19.95
2023-02-17T15:38:21.298Z,11.25
2023-02-17T15:40:48.710Z,8.77
2023-02-17T15:43:19.394Z,13.23
2023-02-17T15:45:46.672Z,19.02
2023-02-17T15:48:24.481Z,17.17
2023-02-17T15:50:52.336Z,14.77
2023-02-17T15:53:19.669Z,10.77
2023-02-17T15:55:47.242Z,15.90
2023-02-17T15:58:19.017Z,13.32
2023-02-17T16:00:46.739Z,14.93
2023-02-17T16:03:14.599Z,11.95
2023-02-17T16:05:42.359Z,10.82
2023-02-17T16:08:09.646Z,16.48
2023-02-17T16:10:39.484Z,14.65
2023-02-17T16:13:07.983Z,14.52
2023-02-17T16:15:37.575Z,8.80
2023-02-17T16:18:04.843Z,14.45
2023-02-17T16:20:34.871Z,13.82
2023-02-17T16:23:02.761Z,13.20
2023-02-17T16:25:30.820Z,14.90
2023-02-17T16:27:58.195Z,10.23
2023-02-17T16:30:35.143Z,15.25
2023-02-17T16:33:03.159Z,16.23
2023-02-17T16:35:31.466Z,17.38
2023-02-17T16:38:09.542Z,14.48
2023-02-17T16:40:37.797Z,12.15
2023-02-17T16:43:05.245Z,19.38
2023-02-17T16:45:33.310Z,19.80
2023-02-17T16:48:01.588Z,11.07
2023-02-17T16:50:33.425Z,17.75
2023-02-17T16:53:02.192Z,16.40
2023-02-17T16:55:31.008Z,17.52
2023-02-17T16:57:58.385Z,15.88
2023-02-17T17:00:27.871Z,20.65
2023-02-17T17:02:55.326Z,11.75
2023-02-17T17:05:22.617Z,15.48
2023-02-17T17:07:51.281Z,18.30
2023-02-17T17:10:20.413Z,14.85
2023-02-17T17:12:47.965Z,16.17
2023-02-17T17:15:17.401Z,16.35
2023-02-17T17:17:46.003Z,17.10
2023-02-17T17:20:14.646Z,18.48
2023-02-17T17:22:42.090Z,14.85
2023-02-17T17:25:09.560Z,21.20
2023-02-17T17:27:37.488Z,20.58
2023-02-17T17:30:05.995Z,15.63
2023-02-17T17:32:33.401Z,15.38
2023-02-17T17:35:00.687Z,21.90
2023-02-17T17:37:27.930Z,23.17
2023-02-17T17:39:55.178Z,19.48
2023-02-17T17:42:22.427Z,22.83
2023-02-17T17:44:49.708Z,22.38
2023-02-17T17:47:28.138Z,22.45
2023-02-17T17:49:56.477Z,21.52
2023-02-17T17:52:24.289Z,19.58
2023-02-17T17:54:51.696Z,29.52
2023-02-17T17:57:18.946Z,26.65
2023-02-17T17:59:46.183Z,21.23
2023-02-17T18:02:13.506Z,20.65
2023-02-17T18:04:40.756Z,20.73
2023-02-17T18:07:08.206Z,31.80
2023-02-17T18:09:36.788Z,19.25
2023-02-17T18:12:14.618Z,23.98
2023-02-17T18:14:42.788Z,23.48
2023-02-17T18:17:10.661Z,22.55
2023-02-17T18:19:38.236Z,22.40
2023-02-17T18:22:05.572Z,26.02
2023-02-17T18:24:33.043Z,20.75
2023-02-17T18:27:00.483Z,29.55
2023-02-17T18:29:27.868Z,25.90
2023-02-17T18:31:55.277Z,23.45
2023-02-17T18:34:22.690Z,32.08
2023-02-17T18:36:49.959Z,25.08
2023-02-17T18:39:17.420Z,30.00
2023-02-17T18:41:44.657Z,28.17
2023-02-17T18:44:13.632Z,20.77
2023-02-17T18:46:41.108Z,24.70
2023-02-17T18:49:08.646Z,27.73
2023-02-17T18:51:36.172Z,21.02
2023-02-17T18:54:03.765Z,27.10
2023-02-17T18:56:33.219Z,26.35
2023-02-17T18:59:00.797Z,25.73
2023-02-17T19:01:30.312Z,21.75
2023-02-17T19:03:57.971Z,26.30
2023-02-17T19:06:26.626Z,31.77
2023-02-17T19:08:53.938Z,22.95
2023-02-17T19:11:22.231Z,28.40
2023-02-17T19:13:49.932Z,31.20
2023-02-17T19:16:25.353Z,25.85
2023-02-17T19:18:52.905Z,23.30
2023-02-17T19:21:20.495Z,26.75
2023-02-17T19:23:48.263Z,22.85
2023-02-17T19:26:16.095Z,23.30
2023-02-17T19:28:43.578Z,26.60
2023-02-17T19:31:12.600Z,21.48
2023-02-17T19:33:40.074Z,24.60
2023-02-17T19:36:11.833Z,29.17
2023-02-17T19:38:39.397Z,28.27
2023-02-17T19:41:07.705Z,28.25
2023-02-17T19:43:35.176Z,32.25
2023-02-17T19:46:02.649Z,29.20
2023-02-17T19:48:29.985Z,26.25
2023-02-17T19:51:01.511Z,31.08
2023-02-17T19:53:28.889Z,27.45
2023-02-17T19:55:56.140Z,32.88
2023-02-17T19:58:23.636Z,26.80
2023-02-17T20:00:51.072Z,31.35
2023-02-17T20:03:18.363Z,39.75
2023-02-17T20:05:45.562Z,31.33
2023-02-17T20:08:12.831Z,30.08
2023-02-17T20:10:40.420Z,31.58
2023-02-17T20:13:07.721Z,31.40
2023-02-17T20:15:35.083Z,35.40
2023-02-17T20:18:02.400Z,25.38
2023-02-17T20:20:29.769Z,34.15
2023-02-17T20:22:57.039Z,25.50
2023-02-17T20:25:24.292Z,32.10
2023-02-17T20:27:52.938Z,37.60
2023-02-17T20:30:20.259Z,26.15
2023-02-17T20:32:47.533Z,39.97
2023-02-17T20:35:14.947Z,28.65
2023-02-17T20:37:42.186Z,28.25
2023-02-17T20:40:09.579Z,27.98
2023-02-17T20:42:36.937Z,33.90
2023-02-17T20:45:04.325Z,25.15
2023-02-17T20:47:31.608Z,29.58
2023-02-17T20:49:58.844Z,32.67
2023-02-17T20:52:26.227Z,24.02
2023-02-17T20:54:53.520Z,24.13
2023-02-17T20:57:20.828Z,33.70
2023-02-17T20:59:48.291Z,26.73
2023-02-17T21:02:15.654Z,33.63
2023-02-17T21:04:42.976Z,27.65
2023-02-17T21:07:11.168Z,29.80
2023-02-17T21:09:38.537Z,31.45
2023-02-17T21:12:05.933Z,27.23
2023-02-17T21:14:33.295Z,32.60
2023-02-17T21:17:00.754Z,33.05
2023-02-17T21:19:29.670Z,29.15
2023-02-17T21:21:57.150Z,33.72
2023-02-17T21:24:24.388Z,27.08
2023-02-17T21:26:51.679Z,35.50
2023-02-17T21:29:19.116Z,31.17
2023-02-17T21:31:46.476Z,33.58
2023-02-17T21:34:13.970Z,32.92
2023-02-17T21:36:41.323Z,29.92
2023-02-17T21:39:08.563Z,26.80
2023-02-17T21:41:35.863Z,28.33
2023-02-17T21:44:21.842Z,31.00
2023-02-17T21:46:49.519Z,26.63
2023-02-17T21:49:16.714Z,27.98
2023-02-17T21:51:44.352Z,34.67
2023-02-17T21:54:11.693Z,28.88
2023-02-17T21:56:39.263Z,22.13
2023-02-17T21:59:07.126Z,27.67
2023-02-17T22:01:34.408Z,27.67
2023-02-17T22:04:02.601Z,26.17
2023-02-17T22:06:31.172Z,26.58
2023-02-17T22:08:59.080Z,28.27
2023-02-17T22:11:30.875Z,30.73
2023-02-17T22:13:59.164Z,33.45
2023-02-17T22:16:27.185Z,38.00
2023-02-17T22:18:54.558Z,30.45
2023-02-17T22:21:21.890Z,30.58
2023-02-17T22:23:49.637Z,43.30
2023-02-17T22:26:18.617Z,32.80
2023-02-17T22:28:46.366Z,27.35
2023-02-17T22:31:14.784Z,31.58
2023-02-17T22:33:42.750Z,35.00
2023-02-17T22:36:14.445Z,35.25
2023-02-17T22:38:41.713Z,29.42
2023-02-17T22:41:10.265Z,33.50
2023-02-17T22:43:38.213Z,33.03
2023-02-17T22:46:06.436Z,30.20
2023-02-17T22:48:34.596Z,38.92
2023-02-17T22:51:28.249Z,34.53
2023-02-17T22:53:55.645Z,31.30
2023-02-17T22:56:23.234Z,36.28
2023-02-17T22:58:55.717Z,41.33
2023-02-17T23:01:23.316Z,37.20
2023-02-17T23:03:53.934Z,50.42
2023-02-17T23:06:23.100Z,40.78
2023-02-17T23:08:50.490Z,33.03
2023-02-17T23:11:19.179Z,38.92
2023-02-17T23:13:46.470Z,38.83
2023-02-17T23:16:21.545Z,38.20
2023-02-17T23:18:48.985Z,38.42
2023-02-17T23:21:16.357Z,40.88
2023-02-17T23:23:43.598Z,32.85
2023-02-17T23:26:11.019Z,33.22
2023-02-17T23:28:38.302Z,39.90
2023-02-17T23:31:10.268Z,39.57
2023-02-17T23:33:37.915Z,34.95
2023-02-17T23:36:05.832Z,36.20
2023-02-17T23:38:33.422Z,34.08
2023-02-17T23:41:01.359Z,42.83
2023-02-17T23:43:29.222Z,35.05
2023-02-17T23:45:56.998Z,44.72
2023-02-17T23:48:24.421Z,40.60
2023-02-17T23:50:58.908Z,43.72
2023-02-17T23:53:26.463Z,44.47
2023-02-17T23:56:04.560Z,40.47
2023-02-17T23:58:32.336Z,43.70
